Time;durP1;ratioP1;P1;durP2;ratioP2;P2;SDS_P1;SDS_P2;PMS_P1;PMS_P2;Temp;Humidity;BMP_temperature;BMP_pressure;BME280_temperature;BME280_humidity;BME280_pressure;Samples;Min_cycle;Max_cycle;Signal;HPM_P1;HPM_P2
2022/09/16 00:00:59;;;;;;;16.85;5.05;;;;;;;21.80;69.02;94196.88;5153787;27;20203;-76
2022/09/16 00:03:26;;;;;;;15.00;4.57;;;;;;;21.74;69.57;94203.34;5147302;27;20202;-75
2022/09/16 00:05:54;;;;;;;15.93;4.85;;;;;;;21.71;69.45;94198.66;5153413;27;20203;-75
2022/09/16 00:08:21;;;;;;;12.10;4.65;;;;;;;21.84;69.65;94197.06;5152984;27;20230;-74
2022/09/16 00:10:49;;;;;;;13.38;4.15;;;;;;;21.89;69.36;94195.09;5152797;27;20576;-75
2022/09/16 00:13:16;;;;;;;13.43;4.47;;;;;;;21.79;68.78;94207.75;5146699;27;20615;-75
2022/09/16 00:15:44;;;;;;;18.85;4.45;;;;;;;21.59;69.65;94218.78;5152688;27;20210;-75
2022/09/16 00:18:12;;;;;;;14.50;4.45;;;;;;;21.60;69.65;94215.03;5141363;27;20207;-75
2022/09/16 00:20:44;;;;;;;15.82;3.88;;;;;;;21.48;70.60;94218.19;5153222;27;20213;-75
2022/09/16 00:23:11;;;;;;;11.63;4.38;;;;;;;21.45;69.88;94221.44;5152120;27;20208;-76
2022/09/16 00:25:37;;;;;;;13.80;4.30;;;;;;;21.24;71.56;94210.47;5147245;27;20284;-76
2022/09/16 00:28:04;;;;;;;14.25;4.03;;;;;;;21.17;71.44;94202.19;5152626;27;20676;-76
2022/09/16 00:30:31;;;;;;;14.85;4.93;;;;;;;21.12;71.15;94194.34;5145252;27;20226;-76
2022/09/16 00:32:58;;;;;;;10.98;4.13;;;;;;;21.07;71.39;94194.41;5153272;27;20198;-76
2022/09/16 00:35:26;;;;;;;12.27;4.35;;;;;;;21.08;72.43;94195.22;5153008;27;20198;-75
2022/09/16 00:37:53;;;;;;;13.35;4.50;;;;;;;21.11;72.71;94194.63;5152966;27;20201;-75
2022/09/16 00:40:20;;;;;;;11.75;4.15;;;;;;;21.14;72.79;94194.81;5152849;27;20198;-76
2022/09/16 00:42:47;;;;;;;13.02;4.43;;;;;;;21.14;73.06;94191.41;5152528;27;20910;-76
2022/09/16 00:45:17;;;;;;;9.60;4.03;;;;;;;21.07;73.45;94183.81;5139419;27;20214;-74
2022/09/16 00:47:49;;;;;;;12.18;4.88;;;;;;;21.06;73.75;94214.00;5151362;27;20195;-75
2022/09/16 00:50:20;;;;;;;22.00;4.32;;;;;;;21.05;72.88;94198.41;5152673;27;20203;-74
2022/09/16 00:52:50;;;;;;;15.20;4.60;;;;;;;20.99;73.40;94204.88;5152086;27;20223;-75
2022/09/16 00:55:21;;;;;;;11.70;4.30;;;;;;;20.99;73.22;94210.94;5152949;27;20225;-74
2022/09/16 00:57:49;;;;;;;11.73;4.65;;;;;;;20.86;73.59;94195.88;5152057;27;20199;-75
2022/09/16 01:00:16;;;;;;;13.88;5.00;;;;;;;20.89;74.34;94201.34;5153363;27;20202;-74
2022/09/16 01:02:45;;;;;;;16.25;5.22;;;;;;;20.83;74.17;94207.03;5153322;27;20203;-75
2022/09/16 01:05:15;;;;;;;16.17;4.93;;;;;;;20.79;74.61;94201.53;5152679;27;20205;-75
2022/09/16 01:07:45;;;;;;;13.43;5.10;;;;;;;20.78;75.31;94202.59;5152949;27;20231;-75
2022/09/16 01:10:15;;;;;;;16.42;5.00;;;;;;;20.82;75.01;94214.16;5153140;27;20203;-75
2022/09/16 01:12:44;;;;;;;10.23;5.00;;;;;;;20.68;75.30;94209.94;5152381;27;20617;-75
2022/09/16 01:15:12;;;;;;;13.30;5.18;;;;;;;20.76;75.74;94222.47;5152885;27;20200;-76
2022/09/16 01:17:54;;;;;;;11.15;5.28;;;;;;;20.79;75.91;94222.69;5148290;27;20209;-75
2022/09/16 01:20:54;;;;;;;12.43;5.13;;;;;;;20.78;75.54;94223.75;5152679;27;20256;-76
2022/09/16 01:23:47;;;;;;;14.68;5.57;;;;;;;20.71;76.10;94220.72;5139181;27;20199;-76
2022/09/16 01:26:29;;;;;;;11.25;5.70;;;;;;;20.72;76.19;94224.16;5152211;27;20886;-76
2022/09/16 01:29:19;;;;;;;17.02;5.93;;;;;;;20.74;76.73;94216.69;5142265;27;20205;-76
2022/09/16 01:31:55;;;;;;;15.05;5.78;;;;;;;20.83;76.36;94225.53;5151768;27;20221;-76
2022/09/16 01:34:34;;;;;;;9.85;4.63;;;;;;;20.65;76.15;94205.25;5145532;27;20205;-76
2022/09/16 01:37:08;;;;;;;11.95;4.85;;;;;;;20.58;76.86;94204.81;5145376;27;20201;-76
2022/09/16 01:39:48;;;;;;;13.32;4.60;;;;;;;20.54;75.42;94199.34;5152370;27;20206;-76
2022/09/16 01:42:27;;;;;;;10.43;4.40;;;;;;;20.53;75.08;94199.63;5152303;27;20195;-76
2022/09/16 01:45:00;;;;;;;15.25;4.78;;;;;;;20.53;75.82;94205.69;5152238;27;20206;-77
2022/09/16 01:47:36;;;;;;;13.48;4.60;;;;;;;20.55;75.87;94208.06;5151138;27;20199;-77
2022/09/16 01:50:12;;;;;;;9.82;4.65;;;;;;;20.57;76.01;94201.41;5145067;27;20206;-76
2022/09/16 01:52:46;;;;;;;11.02;4.70;;;;;;;20.62;76.50;94206.59;5151809;27;20697;-77
2022/09/16 01:55:18;;;;;;;13.73;4.80;;;;;;;20.63;77.03;94202.13;5152411;27;20190;-75
2022/09/16 01:57:51;;;;;;;11.25;4.43;;;;;;;20.64;77.22;94199.16;5151791;27;20206;-76
2022/09/16 02:00:18;;;;;;;10.95;4.40;;;;;;;20.55;76.91;94184.31;5151751;27;20194;-77
2022/09/16 02:02:51;;;;;;;12.48;4.45;;;;;;;20.58;76.91;94192.41;5152033;27;20576;-74
2022/09/16 02:05:24;;;;;;;10.75;4.05;;;;;;;20.61;75.88;94199.75;5152645;27;20194;-76
2022/09/16 02:07:57;;;;;;;9.20;3.75;;;;;;;20.61;75.07;94191.03;5151923;27;20211;-75
2022/09/16 02:10:29;;;;;;;9.90;3.90;;;;;;;20.66;74.52;94196.25;5152083;27;20202;-74
2022/09/16 02:13:04;;;;;;;10.45;3.80;;;;;;;20.72;74.96;94195.09;5151458;27;20222;-74
2022/09/16 02:15:33;;;;;;;11.55;3.97;;;;;;;20.74;75.14;94204.28;5151831;27;20711;-75
2022/09/16 02:18:05;;;;;;;12.27;3.97;;;;;;;20.74;75.40;94203.50;5148057;27;20202;-75
2022/09/16 02:20:36;;;;;;;11.77;3.95;;;;;;;20.76;74.75;94190.78;5151176;27;20726;-77
2022/09/16 02:23:09;;;;;;;9.88;3.90;;;;;;;20.73;74.03;94196.63;5145201;27;20199;-76
2022/09/16 02:25:39;;;;;;;14.30;4.13;;;;;;;20.75;73.48;94186.59;5152050;27;20194;-77
2022/09/16 02:28:12;;;;;;;14.77;3.67;;;;;;;20.75;74.32;94183.94;5138117;27;20200;-76
2022/09/16 02:30:43;;;;;;;10.60;3.67;;;;;;;20.70;74.54;94186.66;5152199;27;20194;-76
2022/09/16 02:33:13;;;;;;;14.73;3.72;;;;;;;20.57;74.50;94190.84;5151509;27;20275;-77
2022/09/16 02:35:41;;;;;;;22.33;4.35;;;;;;;20.57;73.93;94203.28;5148041;27;20615;-76
2022/09/16 02:38:14;;;;;;;9.70;3.97;;;;;;;20.59;74.33;94209.03;5145755;27;20207;-76
2022/09/16 02:40:47;;;;;;;12.27;4.38;;;;;;;20.49;74.39;94206.59;5149082;27;20202;-75
2022/09/16 02:43:14;;;;;;;15.45;4.38;;;;;;;20.51;74.36;94194.66;5151619;27;20249;-76
2022/09/16 02:46:08;;;;;;;11.93;3.72;;;;;;;20.40;75.34;94206.47;5151686;27;20669;-75
2022/09/16 02:48:47;;;;;;;17.10;4.03;;;;;;;20.36;75.39;94200.97;5151122;27;20210;-76
2022/09/16 02:51:26;;;;;;;15.02;4.25;;;;;;;20.29;75.83;94197.91;5148521;27;20195;-76
2022/09/16 02:53:58;;;;;;;11.95;4.03;;;;;;;20.32;75.18;94207.91;5150405;27;20773;-77
2022/09/16 02:56:31;;;;;;;14.90;4.07;;;;;;;20.36;74.96;94224.72;5149586;27;20199;-77
2022/09/16 02:58:58;;;;;;;16.75;4.03;;;;;;;20.27;75.51;94209.84;5147864;27;20194;-77
2022/09/16 03:01:27;;;;;;;17.13;3.90;;;;;;;20.16;76.35;94229.50;5155182;27;20206;-77
2022/09/16 03:03:56;;;;;;;10.35;3.22;;;;;;;20.17;76.28;94226.56;5154844;27;20215;-77
2022/09/16 03:06:27;;;;;;;11.85;3.22;;;;;;;20.21;76.36;94240.78;5155186;27;20203;-77
2022/09/16 03:08:58;;;;;;;12.40;4.25;;;;;;;20.31;76.38;94243.31;5154868;27;20203;-76
2022/09/16 03:11:54;;;;;;;10.40;3.90;;;;;;;20.27;76.33;94230.94;5142407;27;20214;-76
2022/09/16 03:14:37;;;;;;;12.93;4.13;;;;;;;20.36;76.73;94247.69;5155137;27;20194;-76
2022/09/16 03:17:14;;;;;;;13.80;4.30;;;;;;;20.43;76.68;94249.97;5151546;27;20197;-76
2022/09/16 03:19:54;;;;;;;7.85;4.10;;;;;;;20.39;76.64;94244.50;5155174;27;20202;-76
2022/09/16 03:22:31;;;;;;;10.45;4.45;;;;;;;20.40;76.90;94255.84;5154496;27;20194;-75
2022/09/16 03:25:05;;;;;;;20.48;4.53;;;;;;;20.27;78.05;94258.13;5154617;27;20202;-75
2022/09/16 03:27:40;;;;;;;17.13;4.53;;;;;;;20.32;77.77;94250.13;5154438;27;20229;-76
2022/09/16 03:30:10;;;;;;;17.90;4.20;;;;;;;20.30;77.21;94225.88;5154130;27;20210;-76
2022/09/16 03:32:43;;;;;;;16.08;4.82;;;;;;;20.33;77.21;94216.59;5154267;27;20222;-75
2022/09/16 03:35:16;;;;;;;10.65;4.30;;;;;;;20.39;77.96;94233.94;5154598;27;20195;-76
2022/09/16 03:37:46;;;;;;;14.07;4.88;;;;;;;20.39;77.90;94233.94;5154122;27;20310;-77
2022/09/16 03:40:15;;;;;;;11.32;5.05;;;;;;;20.33;78.23;94220.03;5154534;27;20649;-76
2022/09/16 03:42:44;;;;;;;13.85;5.72;;;;;;;20.42;78.15;94229.94;5154000;27;20202;-76
2022/09/16 03:45:15;;;;;;;15.40;5.65;;;;;;;20.43;78.09;94220.94;5147087;27;20205;-77
2022/09/16 03:47:42;;;;;;;18.33;4.90;;;;;;;20.40;78.02;94213.59;5147323;27;20267;-75
2022/09/16 03:50:11;;;;;;;12.38;4.90;;;;;;;20.38;78.38;94209.38;5147009;27;20245;-74
2022/09/16 03:52:38;;;;;;;9.35;4.10;;;;;;;20.42;78.75;94196.41;5153322;27;20771;-74
2022/09/16 03:55:05;;;;;;;11.30;4.18;;;;;;;20.37;78.77;94202.53;5154315;27;20202;-73
2022/09/16 03:57:32;;;;;;;12.90;4.53;;;;;;;20.27;79.43;94207.97;5153162;27;20202;-75
2022/09/16 03:59:59;;;;;;;15.38;4.63;;;;;;;20.23;79.65;94211.47;5153538;27;20203;-74
2022/09/16 04:02:26;;;;;;;12.45;4.82;;;;;;;20.21;79.91;94224.16;5153785;27;20206;-76
2022/09/16 04:04:53;;;;;;;14.65;5.03;;;;;;;20.27;80.51;94225.66;5152895;27;20199;-74
2022/09/16 04:07:21;;;;;;;15.88;5.10;;;;;;;20.25;81.76;94225.97;5152939;27;20228;-75
2022/09/16 04:09:48;;;;;;;12.30;5.00;;;;;;;20.30;81.75;94228.53;5146781;27;20203;-75
2022/09/16 04:12:15;;;;;;;17.10;5.03;;;;;;;20.31;82.15;94232.75;5153537;27;20226;-76
2022/09/16 04:14:42;;;;;;;13.18;5.20;;;;;;;20.28;81.62;94235.16;5137808;27;20608;-78
2022/09/16 04:17:09;;;;;;;16.20;5.65;;;;;;;20.19;80.73;94247.41;5138091;27;20195;-75
2022/09/16 04:19:35;;;;;;;17.23;5.25;;;;;;;20.10;80.35;94254.41;5153178;27;20203;-75
2022/09/16 04:22:02;;;;;;;10.23;4.28;;;;;;;20.04;79.17;94256.34;5153300;27;20203;-75
2022/09/16 04:24:31;;;;;;;16.83;4.93;;;;;;;20.04;79.11;94266.91;5152766;27;20210;-75
2022/09/16 04:26:58;;;;;;;15.52;4.78;;;;;;;20.03;80.52;94269.84;5139022;27;20294;-75
2022/09/16 04:29:25;;;;;;;16.48;4.25;;;;;;;20.14;78.93;94264.13;5152438;27;20202;-74
2022/09/16 04:31:52;;;;;;;14.50;4.57;;;;;;;20.17;77.02;94270.69;5138836;27;20199;-75
2022/09/16 04:34:19;;;;;;;15.45;4.78;;;;;;;20.22;79.37;94265.31;5152917;27;20665;-74
2022/09/16 04:36:46;;;;;;;18.40;5.00;;;;;;;20.31;78.85;94272.34;5140174;27;20229;-75
2022/09/16 04:39:12;;;;;;;15.27;5.45;;;;;;;20.34;78.77;94270.97;5152929;27;20207;-73
2022/09/16 04:41:41;;;;;;;17.98;5.28;;;;;;;20.36;79.18;94266.19;5103271;27;20191;-74
2022/09/16 04:44:10;;;;;;;18.55;4.65;;;;;;;20.38;79.07;94262.19;5133159;27;20226;-74
2022/09/16 04:46:36;;;;;;;18.73;5.47;;;;;;;20.40;78.11;94259.28;5141487;27;20226;-75
2022/09/16 04:49:04;;;;;;;15.27;4.90;;;;;;;20.42;77.93;94266.88;5144516;27;20209;-74
2022/09/16 04:51:31;;;;;;;16.90;5.95;;;;;;;20.47;78.76;94269.44;5151362;27;20693;-78
2022/09/16 04:53:58;;;;;;;17.20;5.20;;;;;;;20.52;78.90;94272.03;5151825;27;20226;-73
2022/09/16 04:56:27;;;;;;;21.40;5.88;;;;;;;20.47;79.05;94275.50;5145035;27;20218;-75
2022/09/16 04:58:58;;;;;;;16.40;5.40;;;;;;;20.47;77.77;94275.50;5151284;27;20202;-75
2022/09/16 05:01:27;;;;;;;20.50;6.78;;;;;;;20.48;77.83;94263.09;5150281;27;20213;-76
2022/09/16 05:03:55;;;;;;;21.85;6.45;;;;;;;20.46;78.10;94268.66;5150819;27;20908;-77
2022/09/16 05:06:23;;;;;;;26.15;7.15;;;;;;;20.42;78.00;94264.25;5141363;27;20696;-76
2022/09/16 05:08:51;;;;;;;30.05;7.05;;;;;;;20.44;78.31;94262.88;5144552;27;20203;-76
2022/09/16 05:11:20;;;;;;;24.20;6.57;;;;;;;20.49;77.82;94270.72;5145537;27;20214;-76
2022/09/16 05:13:48;;;;;;;20.02;5.90;;;;;;;20.44;76.79;94248.91;5151126;27;20218;-76
2022/09/16 05:16:17;;;;;;;22.40;6.07;;;;;;;20.50;76.49;94258.31;5151807;27;20191;-76
2022/09/16 05:18:46;;;;;;;24.10;6.05;;;;;;;20.55;76.46;94253.72;5149208;27;20572;-75
2022/09/16 05:21:15;;;;;;;26.02;6.25;;;;;;;20.57;76.82;94254.22;5150332;27;20205;-76
2022/09/16 05:23:43;;;;;;;31.05;9.07;;;;;;;20.64;77.64;94259.13;5151170;27;20202;-76
2022/09/16 05:26:13;;;;;;;31.15;10.38;;;;;;;20.77;79.04;94255.75;5149461;27;20210;-76
2022/09/16 05:28:40;;;;;;;28.42;6.85;;;;;;;20.84;78.71;94256.13;5151387;27;20190;-77
2022/09/16 05:31:11;;;;;;;23.00;5.80;;;;;;;20.86;76.83;94257.44;5151170;27;20209;-75
2022/09/16 05:33:41;;;;;;;16.23;5.22;;;;;;;20.94;75.77;94253.31;5151092;27;20342;-76
2022/09/16 05:36:10;;;;;;;17.33;5.32;;;;;;;21.03;74.30;94246.28;5150384;27;20202;-75
2022/09/16 05:38:37;;;;;;;21.60;6.47;;;;;;;21.09;73.96;94242.50;5150850;27;20202;-76
2022/09/16 05:41:05;;;;;;;28.75;11.93;;;;;;;21.15;73.99;94235.25;5144424;27;20206;-76
2022/09/16 05:43:33;;;;;;;34.55;12.70;;;;;;;21.13;73.75;94221.53;5151104;27;20206;-77
2022/09/16 05:46:01;;;;;;;26.58;9.88;;;;;;;21.18;74.56;94235.44;5150949;27;20199;-77
2022/09/16 05:48:28;;;;;;;18.20;8.65;;;;;;;21.23;75.41;94229.28;5142733;27;20198;-76
2022/09/16 05:50:59;;;;;;;31.88;10.25;;;;;;;21.25;74.97;94240.34;5151142;27;20287;-76
2022/09/16 05:53:27;;;;;;;33.08;10.52;;;;;;;21.31;73.58;94241.81;5109258;28;20624;-77
2022/09/16 05:55:58;;;;;;;35.88;10.82;;;;;;;21.33;72.72;94251.00;5109902;28;20196;-76
2022/09/16 05:58:26;;;;;;;25.17;6.75;;;;;;;21.35;73.93;94246.25;5109981;28;20204;-76
2022/09/16 06:00:58;;;;;;;22.58;6.15;;;;;;;21.41;74.90;94249.56;5109794;28;20207;-76
2022/09/16 06:03:25;;;;;;;16.13;6.15;;;;;;;21.45;74.83;94250.53;5106660;28;20203;-75
2022/09/16 06:05:52;;;;;;;28.35;5.85;;;;;;;21.55;73.86;94246.91;5109392;28;20211;-76
2022/09/16 06:08:21;;;;;;;19.10;5.75;;;;;;;21.61;73.54;94251.78;5106502;28;20662;-76
2022/09/16 06:10:47;;;;;;;31.13;6.28;;;;;;;21.66;73.37;94242.97;5105599;28;20196;-76
2022/09/16 06:13:14;;;;;;;20.92;4.90;;;;;;;21.74;71.32;94245.69;5109674;28;20220;-76
2022/09/16 06:15:49;;;;;;;20.80;4.50;;;;;;;21.84;68.70;94242.84;5109579;28;20219;-76
2022/09/16 06:18:17;;;;;;;17.33;5.60;;;;;;;21.93;66.46;94243.69;5107409;28;20203;-76
2022/09/16 06:20:44;;;;;;;17.60;6.82;;;;;;;22.01;66.07;94237.72;5108700;28;20204;-76
2022/09/16 06:23:11;;;;;;;18.55;5.93;;;;;;;22.06;65.62;94231.50;5109103;28;20223;-76
2022/09/16 06:25:39;;;;;;;15.50;5.05;;;;;;;22.15;65.34;94229.72;5109553;28;20200;-76
2022/09/16 06:28:08;;;;;;;21.85;5.47;;;;;;;22.24;63.95;94235.88;5105308;28;20219;-77
2022/09/16 06:30:35;;;;;;;17.25;4.65;;;;;;;22.24;63.69;94233.22;5113054;28;20196;-76
2022/09/16 06:33:01;;;;;;;17.23;4.82;;;;;;;22.30;63.54;94229.38;5113648;28;20262;-75
2022/09/16 06:35:28;;;;;;;26.48;4.85;;;;;;;22.37;63.29;94228.94;5113320;28;20681;-76
2022/09/16 06:37:56;;;;;;;11.43;4.22;;;;;;;22.38;63.01;94225.22;5112874;28;20204;-76
2022/09/16 06:40:23;;;;;;;17.33;4.35;;;;;;;22.44;62.46;94238.03;5106607;28;20189;-76
2022/09/16 06:42:54;;;;;;;16.42;4.43;;;;;;;22.43;62.47;94244.41;5112764;28;20210;-76
2022/09/16 06:45:22;;;;;;;16.90;5.18;;;;;;;22.44;62.13;94239.91;5113308;28;20204;-76
2022/09/16 06:47:49;;;;;;;10.93;4.45;;;;;;;22.49;61.53;94242.41;5107259;28;20216;-76
2022/09/16 06:50:16;;;;;;;11.27;3.95;;;;;;;22.53;61.64;94238.09;5113238;28;20243;-76
2022/09/16 06:52:43;;;;;;;14.88;3.78;;;;;;;22.57;61.70;94246.97;5142306;27;20234;-76
2022/09/16 06:55:10;;;;;;;18.80;3.95;;;;;;;22.61;61.89;94248.75;5153510;27;20641;-76
2022/09/16 06:57:37;;;;;;;14.60;4.10;;;;;;;22.63;61.53;94242.38;5154092;27;20213;-76
2022/09/16 07:00:06;;;;;;;15.05;4.18;;;;;;;22.69;61.56;94243.81;5153796;27;20206;-76
2022/09/16 07:02:33;;;;;;;12.85;4.15;;;;;;;22.72;61.39;94249.28;5154104;27;20201;-75
2022/09/16 07:05:01;;;;;;;14.30;4.05;;;;;;;22.81;61.99;94249.34;5153755;27;20206;-75
2022/09/16 07:07:30;;;;;;;15.20;3.92;;;;;;;22.86;61.53;94246.56;5153572;27;20198;-76
2022/09/16 07:09:57;;;;;;;17.60;3.75;;;;;;;22.90;61.74;94252.81;5138448;27;20639;-75
2022/09/16 07:12:24;;;;;;;10.50;3.88;;;;;;;22.90;61.21;94248.31;5145342;27;20290;-74
2022/09/16 07:14:51;;;;;;;12.23;3.95;;;;;;;22.90;60.92;94256.25;5152796;27;20222;-75
2022/09/16 07:17:22;;;;;;;10.50;3.70;;;;;;;22.91;60.73;94254.41;5152149;27;20207;-76
2022/09/16 07:19:49;;;;;;;12.57;4.25;;;;;;;22.97;61.59;94253.19;5154124;27;20285;-75
2022/09/16 07:22:16;;;;;;;25.13;4.10;;;;;;;23.00;61.55;94241.97;5152905;27;20204;-76
2022/09/16 07:24:42;;;;;;;10.82;4.40;;;;;;;23.08;61.08;94243.88;5152978;27;20209;-76
2022/09/16 07:27:09;;;;;;;14.90;4.03;;;;;;;23.09;60.10;94240.13;5153892;27;20206;-76
2022/09/16 07:29:36;;;;;;;14.60;3.92;;;;;;;23.09;60.60;94237.47;5153455;27;20202;-76
2022/09/16 07:32:03;;;;;;;14.48;4.57;;;;;;;23.06;60.62;94227.47;5153193;27;20214;-76
2022/09/16 07:34:32;;;;;;;10.23;3.60;;;;;;;23.19;61.06;94242.50;5153234;27;20215;-76
2022/09/16 07:36:59;;;;;;;12.75;3.88;;;;;;;23.22;61.16;94249.06;5153852;27;20206;-77
2022/09/16 07:39:26;;;;;;;14.77;3.83;;;;;;;23.16;60.44;94222.69;5151234;27;20199;-76
2022/09/16 07:41:53;;;;;;;12.45;3.50;;;;;;;23.29;60.35;94226.31;5146655;27;20199;-75
2022/09/16 07:44:20;;;;;;;8.13;3.47;;;;;;;23.29;60.50;94210.38;5153031;27;20206;-76
2022/09/16 07:46:49;;;;;;;11.38;3.53;;;;;;;23.35;60.38;94211.81;5152686;27;20240;-76
2022/09/16 07:49:17;;;;;;;13.85;3.42;;;;;;;23.42;60.09;94220.16;5148155;27;20417;-76
2022/09/16 07:51:45;;;;;;;18.95;3.63;;;;;;;23.53;59.41;94216.13;5152335;27;20239;-76
2022/09/16 07:54:14;;;;;;;13.85;3.92;;;;;;;23.68;59.36;94207.72;5152888;27;20297;-76
2022/09/16 07:56:42;;;;;;;12.82;3.83;;;;;;;23.75;58.59;94225.06;5153355;27;20191;-76
2022/09/16 07:59:13;;;;;;;16.40;3.95;;;;;;;23.85;58.37;94216.78;5152755;27;20206;-78
2022/09/16 08:01:40;;;;;;;15.40;3.92;;;;;;;23.89;57.55;94201.81;5153249;27;20209;-76
2022/09/16 08:04:07;;;;;;;4.85;1.92;;;;;;;24.15;74.47;94210.59;5153083;27;20620;-76
2022/09/16 08:06:37;;;;;;;13.48;3.30;;;;;;;24.34;66.72;94215.56;5153138;27;20202;-76
2022/09/16 08:09:05;;;;;;;10.80;3.53;;;;;;;24.46;65.47;94200.53;5153253;27;20221;-77
2022/09/16 08:11:32;;;;;;;11.65;2.80;;;;;;;24.62;69.50;94200.81;5152557;27;20275;-76
2022/09/16 08:14:00;;;;;;;8.57;3.75;;;;;;;24.72;57.17;94205.81;5146928;27;20235;-77
2022/09/16 08:16:27;;;;;;;13.85;3.90;;;;;;;24.69;55.49;94196.59;5152564;27;20222;-76
2022/09/16 08:18:55;;;;;;;14.75;3.60;;;;;;;24.77;56.59;94200.31;5139204;27;20198;-82
2022/09/16 08:21:24;;;;;;;18.98;4.30;;;;;;;24.93;55.88;94190.75;5144415;27;20549;-75
2022/09/16 08:23:52;;;;;;;16.48;4.30;;;;;;;25.10;56.56;94203.19;5145434;27;20209;-75
2022/09/16 08:26:20;;;;;;;10.70;2.72;;;;;;;25.26;64.51;94189.03;5152043;27;20602;-75
2022/09/16 08:28:48;;;;;;;8.35;2.40;;;;;;;25.51;63.55;94197.25;5145229;27;20642;-75
2022/09/16 08:31:16;;;;;;;9.77;2.95;;;;;;;25.65;61.84;94187.13;5120715;27;20247;-73
2022/09/16 08:33:43;;;;;;;10.40;3.75;;;;;;;25.78;56.07;94189.53;5149524;27;20744;-73
2022/09/16 08:36:15;;;;;;;14.60;3.50;;;;;;;25.90;56.77;94189.59;5152299;27;20210;-73
2022/09/16 08:38:43;;;;;;;12.63;3.28;;;;;;;25.97;59.09;94178.44;5152099;27;20614;-72
2022/09/16 08:41:37;;;;;;;10.43;3.20;;;;;;;26.09;58.03;94186.47;5145999;27;20541;-72
2022/09/16 08:44:15;;;;;;;8.02;2.85;;;;;;;26.20;58.53;94178.91;5144899;27;20205;-73
2022/09/16 08:46:49;;;;;;;15.63;4.00;;;;;;;26.24;55.83;94185.13;5151588;27;20206;-72
2022/09/16 08:49:21;;;;;;;12.13;3.85;;;;;;;26.28;56.29;94180.69;5147066;27;20679;-73
2022/09/16 08:51:49;;;;;;;10.52;2.80;;;;;;;26.30;57.71;94178.47;5150842;27;20247;-73
2022/09/16 08:54:27;;;;;;;17.48;4.20;;;;;;;26.28;55.72;94176.16;5151869;27;20226;-73
2022/09/16 08:56:59;;;;;;;8.45;3.53;;;;;;;26.25;54.44;94168.81;5152372;27;20202;-73
2022/09/16 08:59:30;;;;;;;16.13;3.70;;;;;;;26.24;53.10;94177.13;5151978;27;20206;-74
2022/09/16 09:02:07;;;;;;;17.88;4.22;;;;;;;26.20;52.94;94177.03;5147084;27;20207;-79
2022/09/16 09:04:33;;;;;;;16.33;3.80;;;;;;;26.15;53.19;94171.88;5145526;27;20190;-78
2022/09/16 09:07:14;;;;;;;16.50;4.40;;;;;;;26.15;53.31;94173.75;5151713;27;20191;-77
2022/09/16 09:09:52;;;;;;;16.40;3.92;;;;;;;26.19;53.33;94186.09;5152065;27;20198;-79
2022/09/16 09:12:28;;;;;;;15.63;3.33;;;;;;;26.15;54.69;94174.53;5151590;27;20258;-77
2022/09/16 09:15:13;;;;;;;12.85;4.30;;;;;;;26.25;54.72;94187.47;5151660;27;20668;-78
2022/09/16 09:17:53;;;;;;;20.92;4.13;;;;;;;26.32;55.11;94179.72;5150375;27;20213;-78
2022/09/16 09:20:31;;;;;;;15.63;4.35;;;;;;;26.42;55.51;94175.88;5149417;27;20202;-78
2022/09/16 09:23:20;;;;;;;16.85;4.50;;;;;;;26.49;53.29;94186.78;5151600;27;20732;-79
2022/09/16 09:25:57;;;;;;;12.18;3.90;;;;;;;26.53;54.69;94177.00;5151139;27;20948;-78
2022/09/16 09:28:44;;;;;;;13.00;3.55;;;;;;;26.55;54.06;94174.81;5152128;27;20213;-79
2022/09/16 09:31:21;;;;;;;17.80;3.95;;;;;;;26.61;53.90;94178.03;5151480;27;20590;-77
2022/09/16 09:33:53;;;;;;;12.10;3.35;;;;;;;26.61;52.77;94176.13;5150953;27;20677;-77
2022/09/16 09:36:48;;;;;;;9.90;3.63;;;;;;;26.64;52.75;94180.06;5150729;27;20202;-77
2022/09/16 09:39:32;;;;;;;16.15;3.72;;;;;;;26.62;53.55;94184.91;5148763;27;20202;-77
2022/09/16 09:42:04;;;;;;;12.10;3.80;;;;;;;26.59;53.41;94181.03;5144928;27;20202;-78
2022/09/16 09:44:45;;;;;;;15.52;3.53;;;;;;;26.52;52.40;94186.88;5151819;27;20201;-79
2022/09/16 09:47:17;;;;;;;12.25;3.40;;;;;;;26.46;52.58;94193.53;5147528;27;20701;-78
2022/09/16 09:49:49;;;;;;;19.65;3.95;;;;;;;26.41;52.54;94196.41;5145955;27;20211;-78
2022/09/16 09:52:21;;;;;;;18.23;3.65;;;;;;;26.35;53.02;94192.38;5143541;27;20234;-78
2022/09/16 09:54:50;;;;;;;14.18;4.00;;;;;;;26.38;53.38;94196.28;5137177;27;20209;-78
2022/09/16 09:57:25;;;;;;;15.65;3.63;;;;;;;26.33;55.51;94204.47;5150477;27;20239;-78
2022/09/16 10:00:00;;;;;;;15.90;4.10;;;;;;;26.25;55.42;94210.66;5131753;27;20199;-77
2022/09/16 10:02:27;;;;;;;15.55;4.60;;;;;;;26.04;55.57;94226.63;5138901;27;20190;-79
2022/09/16 10:04:54;;;;;;;21.98;5.13;;;;;;;25.94;57.78;94238.44;5153092;27;20972;-78
2022/09/16 10:07:24;;;;;;;14.25;5.30;;;;;;;25.77;58.39;94253.78;5155024;27;20202;-73
2022/09/16 10:09:55;;;;;;;16.30;4.60;;;;;;;25.61;60.76;94250.88;5148275;27;20289;-74
2022/09/16 10:12:31;;;;;;;16.33;4.50;;;;;;;25.33;62.52;94257.72;5142093;27;20194;-77
2022/09/16 10:15:00;;;;;;;30.77;6.10;;;;;;;25.05;64.97;94265.31;5154745;27;20222;-77
2022/09/16 10:17:30;;;;;;;18.80;6.07;;;;;;;24.91;66.26;94279.91;5154222;27;20583;-77
2022/09/16 10:20:00;;;;;;;20.98;7.45;;;;;;;24.82;69.38;94323.25;5154417;27;20210;-77
2022/09/16 10:22:29;;;;;;;15.02;4.57;;;;;;;24.27;67.48;94346.22;5153207;27;20279;-72
2022/09/16 10:24:58;;;;;;;17.35;4.30;;;;;;;23.68;71.19;94359.00;5154808;27;20248;-73
2022/09/16 10:27:28;;;;;;;12.73;3.53;;;;;;;23.29;74.69;94355.50;5148724;27;20206;-73
2022/09/16 10:30:12;;;;;;;13.00;3.45;;;;;;;23.12;78.16;94388.00;5147799;27;20645;-74
2022/09/16 10:32:47;;;;;;;7.72;3.33;;;;;;;22.71;81.21;94405.97;5144285;27;20206;-74
2022/09/16 10:35:20;;;;;;;14.18;3.75;;;;;;;22.31;83.32;94389.81;5155478;27;20226;-73
2022/09/16 10:37:51;;;;;;;7.70;3.30;;;;;;;21.89;86.44;94406.81;5154876;27;20191;-73
2022/09/16 10:40:19;;;;;;;7.97;3.10;;;;;;;21.68;88.76;94418.03;5149961;27;20195;-74
2022/09/16 10:42:48;;;;;;;8.60;3.13;;;;;;;21.53;91.02;94420.97;5154200;27;20641;-72
2022/09/16 10:45:26;;;;;;;12.20;3.15;;;;;;;21.41;93.10;94419.56;5154308;27;21122;-73
2022/09/16 10:47:57;;;;;;;14.70;3.22;;;;;;;21.20;95.31;94410.41;5148171;27;20241;-74
2022/09/16 10:50:25;;;;;;;7.50;2.80;;;;;;;21.11;97.49;94401.59;5154941;27;20198;-74
2022/09/16 10:52:52;;;;;;;8.75;3.28;;;;;;;21.04;99.84;94401.13;5153975;27;20277;-74
2022/09/16 10:55:25;;;;;;;14.27;3.40;;;;;;;20.92;100.00;94403.47;5154882;27;20221;-73
2022/09/16 10:57:53;;;;;;;11.40;4.40;;;;;;;20.75;100.00;94385.47;5154299;27;20279;-74
2022/09/16 11:00:23;;;;;;;12.57;6.60;;;;;;;20.75;100.00;94359.03;5154257;27;20202;-73
2022/09/16 11:03:19;;;;;;;14.98;7.20;;;;;;;20.76;100.00;94360.63;5154005;27;20572;-73
2022/09/16 11:05:57;;;;;;;7.57;4.15;;;;;;;20.72;98.08;94320.00;5146300;27;20194;-73
2022/09/16 11:08:37;;;;;;;10.32;3.40;;;;;;;20.86;98.03;94320.06;5145353;27;20684;-74
2022/09/16 11:11:15;;;;;;;6.50;3.05;;;;;;;21.00;96.29;94306.88;5147398;27;20266;-73
2022/09/16 11:13:52;;;;;;;9.63;4.10;;;;;;;21.24;94.43;94287.13;5153687;27;20198;-72
2022/09/16 11:16:40;;;;;;;9.73;4.50;;;;;;;21.81;90.46;94282.34;5153809;27;20202;-72
2022/09/16 11:19:13;;;;;;;6.53;2.72;;;;;;;22.44;88.75;94253.94;5152984;27;20563;-73
2022/09/16 11:21:54;;;;;;;8.18;2.85;;;;;;;22.73;85.55;94242.91;5146549;27;20210;-72
2022/09/16 11:24:47;;;;;;;12.88;3.20;;;;;;;22.98;81.59;94241.47;5153536;27;20195;-73
2022/09/16 11:27:24;;;;;;;11.27;3.35;;;;;;;23.15;81.10;94218.47;5154161;27;20562;-72
2022/09/16 11:30:09;;;;;;;8.27;3.13;;;;;;;23.05;78.56;94215.31;5153814;27;20198;-73
2022/09/16 11:32:53;;;;;;;12.13;4.05;;;;;;;23.01;78.69;94204.53;5153476;27;20233;-73
2022/09/16 11:35:33;;;;;;;7.15;3.10;;;;;;;23.11;77.07;94211.44;5146857;27;20210;-74
2022/09/16 11:38:08;;;;;;;5.65;2.20;;;;;;;23.15;75.50;94210.50;5154246;27;20250;-73
2022/09/16 11:40:46;;;;;;;3.85;1.80;;;;;;;23.17;74.94;94213.63;5148493;27;20202;-73
2022/09/16 11:43:54;;;;;;;4.20;1.80;;;;;;;23.37;74.72;94214.19;5146910;27;20231;-74
2022/09/16 11:46:28;;;;;;;4.93;2.22;;;;;;;23.56;73.83;94204.88;5139176;27;20209;-73